Time;durP1;ratioP1;P1;durP2;ratioP2;P2;SDS_P1;SDS_P2;PMS_P1;PMS_P2;Temp;Humidity;BMP_temperature;BMP_pressure;BME280_temperature;BME280_humidity;BME280_pressure;Samples;Min_cycle;Max_cycle;Signal;HPM_P1;HPM_P2
2022/09/15 00:01:22;;;;;;;6.95;2.60;;;20.60;99.90;;;;;;5029825;28;20041;-72
2022/09/15 00:03:48;;;;;;;5.97;1.80;;;20.60;99.90;;;;;;5029049;28;20136;-73
2022/09/15 00:06:14;;;;;;;8.60;2.28;;;20.60;99.90;;;;;;5029102;28;20473;-73
2022/09/15 00:08:40;;;;;;;8.52;2.22;;;20.40;99.90;;;;;;5028371;28;20472;-72
2022/09/15 00:11:17;;;;;;;9.23;1.98;;;20.50;99.90;;;;;;5032573;28;20120;-73
2022/09/15 00:13:43;;;;;;;9.13;2.35;;;20.60;99.90;;;;;;5039501;28;20037;-73
2022/09/15 00:16:10;;;;;;;8.43;2.15;;;20.70;99.90;;;;;;5030539;28;20116;-73
2022/09/15 00:18:37;;;;;;;5.15;1.67;;;20.40;99.90;;;;;;5036134;28;20387;-72
2022/09/15 00:21:09;;;;;;;6.15;1.95;;;20.40;99.90;;;;;;5032812;28;20034;-73
2022/09/15 00:23:35;;;;;;;14.90;2.55;;;20.30;99.90;;;;;;5027950;28;20071;-73
2022/09/15 00:26:04;;;;;;;9.73;2.72;;;20.30;99.90;;;;;;5028782;28;20037;-72
2022/09/15 00:28:31;;;;;;;10.02;2.60;;;20.40;99.90;;;;;;5037289;28;20123;-72
2022/09/15 00:30:57;;;;;;;7.60;2.20;;;20.40;99.90;;;;;;5028529;28;20025;-73
2022/09/15 00:33:22;;;;;;;7.85;2.83;;;20.50;99.90;;;;;;5028378;28;20047;-72
2022/09/15 00:35:51;;;;;;;6.72;1.85;;;20.70;99.90;;;;;;5028966;28;20065;-73
2022/09/15 00:38:17;;;;;;;9.25;2.35;;;20.60;99.90;;;;;;5029532;28;20107;-73
2022/09/15 00:40:53;;;;;;;6.13;1.90;;;20.60;99.90;;;;;;5029588;28;20045;-72
2022/09/15 00:43:38;;;;;;;7.63;2.22;;;20.50;99.90;;;;;;5027589;28;20049;-72
2022/09/15 00:46:03;;;;;;;7.20;1.83;;;20.50;99.90;;;;;;5030234;28;20471;-72
2022/09/15 00:48:29;;;;;;;7.70;2.20;;;20.90;99.90;;;;;;5029357;28;20026;-73
2022/09/15 00:50:57;;;;;;;7.63;1.90;;;20.90;99.90;;;;;;5033800;28;20036;-73
2022/09/15 00:53:25;;;;;;;8.98;2.15;;;20.80;99.90;;;;;;5027560;28;20021;-72
2022/09/15 00:55:51;;;;;;;4.45;1.73;;;20.60;99.90;;;;;;5027584;28;20033;-73
2022/09/15 00:58:58;;;;;;;8.90;2.63;;;20.50;99.90;;;;;;5034324;28;20040;-72
2022/09/15 01:01:25;;;;;;;5.20;1.73;;;20.30;99.90;;;;;;5043607;28;20041;-73
2022/09/15 01:03:51;;;;;;;8.63;2.45;;;20.40;99.90;;;;;;5034634;28;20108;-72
2022/09/15 01:06:25;;;;;;;6.95;2.10;;;20.20;99.90;;;;;;5028807;28;20613;-72
2022/09/15 01:08:55;;;;;;;;;;;19.90;99.90;;;;;;5028776;28;20531;-73
2022/09/15 01:11:21;;;;;;;10.93;1.90;;;19.80;99.90;;;;;;5034691;28;20367;-73
2022/09/15 01:13:47;;;;;;;6.25;2.03;;;20.00;99.90;;;;;;5030412;28;20030;-72
2022/09/15 01:16:19;;;;;;;8.52;2.30;;;20.20;99.90;;;;;;5028124;28;20041;-72
2022/09/15 01:18:51;;;;;;;6.20;2.20;;;20.20;99.90;;;;;;5028102;28;20123;-72
2022/09/15 01:21:28;;;;;;;9.10;3.38;;;20.20;99.90;;;;;;5027129;28;20033;-72
2022/09/15 01:24:13;;;;;;;6.35;2.08;;;20.20;99.90;;;;;;5027084;28;20029;-72
2022/09/15 01:26:41;;;;;;;6.30;2.15;;;20.20;99.90;;;;;;5031362;28;20025;-73
2022/09/15 01:29:25;;;;;;;8.48;2.30;;;20.10;99.90;;;;;;5028776;28;20033;-72
2022/09/15 01:35:07;;;;;;;10.15;3.15;;;20.10;99.90;;;;;;5029539;28;20116;-72
2022/09/15 01:37:39;;;;;;;7.53;2.45;;;20.20;99.90;;;;;;5028086;28;20116;-72
2022/09/15 01:40:07;;;;;;;7.30;3.05;;;20.30;99.90;;;;;;5027856;28;20033;-73
2022/09/15 01:42:35;;;;;;;12.40;2.70;;;20.30;99.90;;;;;;5029485;28;20060;-73
2022/09/15 01:45:08;;;;;;;11.02;2.45;;;20.20;99.90;;;;;;5028872;28;20028;-73
2022/09/15 01:47:35;;;;;;;8.32;2.15;;;20.10;99.90;;;;;;5039313;28;20466;-72
2022/09/15 01:50:07;;;;;;;9.40;2.90;;;20.00;99.90;;;;;;5027767;28;20068;-72
2022/09/15 01:52:33;;;;;;;6.90;2.15;;;20.00;99.90;;;;;;5030058;28;20037;-72
2022/09/15 01:55:04;;;;;;;9.88;2.97;;;20.00;99.90;;;;;;5027426;28;20052;-73
2022/09/15 01:57:32;;;;;;;7.55;2.28;;;20.10;99.90;;;;;;5028961;28;20064;-73
2022/09/15 01:59:59;;;;;;;7.18;2.15;;;20.10;99.90;;;;;;5036351;28;20108;-72
2022/09/15 02:02:42;;;;;;;4.45;2.15;;;20.10;99.90;;;;;;5031305;28;20475;-73
2022/09/15 02:05:29;;;;;;;9.87;2.60;;;20.10;99.90;;;;;;5029725;28;20033;-72
2022/09/15 02:08:03;;;;;;;10.32;2.63;;;20.10;99.90;;;;;;5033151;28;20366;-73
2022/09/15 02:10:54;;;;;;;6.68;2.10;;;20.00;99.90;;;;;;5032144;28;20017;-73
2022/09/15 02:13:41;;;;;;;11.43;3.80;;;20.00;99.90;;;;;;5034019;28;20065;-72
2022/09/15 02:16:22;;;;;;;9.13;2.35;;;20.00;99.90;;;;;;5035714;28;20107;-73
2022/09/15 02:19:32;;;;;;;6.60;2.10;;;19.90;99.90;;;;;;5031344;28;20069;-73
2022/09/15 02:22:14;;;;;;;7.57;2.63;;;19.90;99.90;;;;;;5033536;28;20033;-72
2022/09/15 02:24:46;;;;;;;10.02;2.80;;;19.80;99.90;;;;;;5029988;28;20033;-73
2022/09/15 02:27:17;;;;;;;17.05;3.03;;;19.80;99.90;;;;;;5037245;28;20107;-72
2022/09/15 02:29:45;;;;;;;9.77;2.60;;;19.80;99.90;;;;;;5031578;28;20053;-73
2022/09/15 02:32:14;;;;;;;4.97;2.00;;;20.00;99.90;;;;;;5033609;28;20387;-72
2022/09/15 02:34:45;;;;;;;12.63;3.13;;;19.90;99.90;;;;;;5032281;28;20090;-73
2022/09/15 02:37:11;;;;;;;5.53;2.25;;;19.80;99.90;;;;;;5030453;28;20112;-72
2022/09/15 02:39:42;;;;;;;12.02;2.53;;;19.90;99.90;;;;;;5030989;28;20488;-72
2022/09/15 02:42:09;;;;;;;11.57;2.72;;;20.00;99.90;;;;;;5038252;28;20041;-72
2022/09/15 02:44:35;;;;;;;6.30;2.67;;;20.20;99.90;;;;;;5031388;28;20047;-72
2022/09/15 02:47:02;;;;;;;7.00;2.40;;;20.20;99.90;;;;;;5030870;28;20030;-73
2022/09/15 02:49:28;;;;;;;6.70;2.83;;;20.20;99.90;;;;;;5032021;28;20029;-73
2022/09/15 02:51:54;;;;;;;10.43;2.15;;;19.90;99.90;;;;;;5032264;28;20039;-72
2022/09/15 02:54:20;;;;;;;5.90;2.33;;;19.80;99.90;;;;;;5029671;28;20391;-73
2022/09/15 02:56:46;;;;;;;8.63;3.00;;;19.80;99.90;;;;;;5033904;28;20018;-73
2022/09/15 02:59:12;;;;;;;6.07;2.28;;;19.90;99.90;;;;;;5029290;28;20045;-72
2022/09/15 03:01:39;;;;;;;6.00;2.50;;;19.90;99.90;;;;;;5037195;28;20041;-72
2022/09/15 03:04:05;;;;;;;7.93;2.17;;;20.00;99.90;;;;;;5031485;28;20502;-72
2022/09/15 03:06:34;;;;;;;7.57;2.50;;;19.90;99.90;;;;;;5027294;28;20029;-72
2022/09/15 03:09:06;;;;;;;7.60;2.65;;;19.80;99.90;;;;;;5025389;28;20033;-72
2022/09/15 03:11:33;;;;;;;5.05;2.05;;;19.80;99.90;;;;;;5035914;28;20543;-72
2022/09/15 03:14:01;;;;;;;7.93;2.85;;;19.80;99.90;;;;;;5027903;28;20116;-72
2022/09/15 03:16:28;;;;;;;13.75;2.97;;;19.80;99.90;;;;;;5031225;28;20048;-72
2022/09/15 03:18:55;;;;;;;10.13;2.20;;;19.70;99.90;;;;;;5026970;28;20021;-72
2022/09/15 03:21:22;;;;;;;12.55;3.15;;;19.80;99.90;;;;;;5023138;28;20575;-72
2022/09/15 03:23:47;;;;;;;10.43;3.00;;;19.80;99.90;;;;;;5022589;28;20524;-73
2022/09/15 03:26:13;;;;;;;6.13;2.33;;;19.80;99.90;;;;;;5023859;28;20065;-72
2022/09/15 03:28:39;;;;;;;6.93;3.03;;;19.70;99.90;;;;;;5024783;28;20649;-72
2022/09/15 03:31:07;;;;;;;5.13;2.92;;;19.70;99.90;;;;;;5024161;28;20026;-72
2022/09/15 03:33:32;;;;;;;7.60;2.83;;;19.70;99.90;;;;;;5024566;28;20514;-72
2022/09/15 03:35:58;;;;;;;12.52;3.67;;;19.70;99.90;;;;;;5025674;28;20061;-73
2022/09/15 03:38:24;;;;;;;8.30;2.60;;;19.80;99.90;;;;;;5026216;28;20067;-72
2022/09/15 03:41:06;;;;;;;6.80;2.05;;;19.80;99.90;;;;;;5030103;28;20082;-72
2022/09/15 03:43:32;;;;;;;6.10;2.75;;;19.90;99.90;;;;;;5026345;28;20021;-72
2022/09/15 03:45:59;;;;;;;8.23;2.90;;;19.80;99.90;;;;;;5024985;28;20040;-73
2022/09/15 03:48:26;;;;;;;8.00;2.30;;;19.80;99.90;;;;;;5026259;28;20041;-72
2022/09/15 03:50:51;;;;;;;9.57;2.40;;;19.90;99.90;;;;;;5024690;28;20108;-72
2022/09/15 03:53:18;;;;;;;8.88;2.95;;;19.90;99.90;;;;;;5025427;28;20129;-72
2022/09/15 03:55:45;;;;;;;10.80;3.15;;;19.80;99.90;;;;;;5026527;28;20032;-72
2022/09/15 03:58:12;;;;;;;6.68;2.72;;;19.70;99.90;;;;;;5024913;28;20025;-73
2022/09/15 04:00:39;;;;;;;7.93;2.38;;;19.60;99.90;;;;;;5020304;28;20635;-72
2022/09/15 04:03:05;;;;;;;9.57;2.55;;;19.80;99.90;;;;;;5022249;28;20040;-73
2022/09/15 04:05:31;;;;;;;10.02;2.30;;;19.80;99.90;;;;;;5022088;28;20033;-72
2022/09/15 04:07:57;;;;;;;13.20;3.03;;;19.70;99.90;;;;;;5022560;28;20715;-73
2022/09/15 04:10:23;;;;;;;7.50;2.42;;;19.70;99.90;;;;;;5022372;28;20185;-72
2022/09/15 04:12:52;;;;;;;5.63;2.55;;;19.50;99.90;;;;;;5021781;28;20045;-73
2022/09/15 04:15:19;;;;;;;8.68;2.20;;;19.50;99.90;;;;;;5027607;28;20092;-73
2022/09/15 04:17:45;;;;;;;10.48;2.78;;;19.60;99.90;;;;;;5022143;28;20065;-73
2022/09/15 04:20:11;;;;;;;7.75;2.17;;;19.60;99.90;;;;;;5024423;28;20078;-72
2022/09/15 04:22:37;;;;;;;10.50;2.65;;;19.50;99.90;;;;;;5021208;28;20035;-72
2022/09/15 04:25:03;;;;;;;9.45;2.25;;;19.50;99.90;;;;;;5024836;28;20037;-72
2022/09/15 04:27:33;;;;;;;8.43;2.92;;;19.40;99.90;;;;;;5021100;28;20027;-72
2022/09/15 04:29:59;;;;;;;6.32;2.33;;;19.40;99.90;;;;;;5023116;28;20069;-72
2022/09/15 04:32:24;;;;;;;8.45;2.75;;;19.40;99.90;;;;;;5022117;28;20057;-72
2022/09/15 04:34:50;;;;;;;11.43;3.38;;;19.30;99.90;;;;;;5021285;28;20460;-72
2022/09/15 04:37:17;;;;;;;7.53;2.80;;;19.20;99.90;;;;;;5021159;28;20428;-72
2022/09/15 04:39:43;;;;;;;7.63;2.70;;;19.20;99.90;;;;;;5020818;28;20041;-72
2022/09/15 04:42:08;;;;;;;8.18;2.20;;;19.30;99.90;;;;;;5021288;28;20771;-72
2022/09/15 04:44:34;;;;;;;10.50;2.63;;;19.40;99.90;;;;;;5028873;28;20112;-72
2022/09/15 04:47:00;;;;;;;12.88;2.80;;;19.40;99.90;;;;;;5022215;28;20045;-72
2022/09/15 04:49:27;;;;;;;10.50;3.08;;;19.40;99.90;;;;;;5020582;28;20514;-72
2022/09/15 04:51:54;;;;;;;11.95;2.50;;;19.40;99.90;;;;;;5026388;28;20542;-72
2022/09/15 04:54:20;;;;;;;7.32;2.92;;;19.30;99.90;;;;;;5020553;28;20364;-72
2022/09/15 04:56:46;;;;;;;11.60;2.40;;;19.10;99.90;;;;;;5021730;28;20029;-72
2022/09/15 04:59:14;;;;;;;11.32;2.90;;;19.10;99.90;;;;;;5027903;28;20028;-72
2022/09/15 05:01:40;;;;;;;10.32;2.80;;;18.90;99.90;;;;;;5027406;28;20041;-72
2022/09/15 05:04:06;;;;;;;5.47;2.38;;;18.90;99.90;;;;;;5020362;28;20026;-73
2022/09/15 05:06:33;;;;;;;10.85;3.08;;;18.90;99.90;;;;;;5024037;28;20029;-73
2022/09/15 05:08:59;;;;;;;7.25;3.65;;;18.90;99.90;;;;;;5025305;28;20037;-73
2022/09/15 05:11:27;;;;;;;13.50;3.47;;;19.00;99.90;;;;;;5022796;28;20030;-73
2022/09/15 05:13:53;;;;;;;7.75;2.63;;;19.10;99.90;;;;;;5021106;28;20096;-73
2022/09/15 05:16:22;;;;;;;6.60;2.78;;;19.00;99.90;;;;;;5024707;28;20124;-73
2022/09/15 05:18:49;;;;;;;8.02;2.42;;;19.00;99.90;;;;;;5019004;28;20061;-73
2022/09/15 05:21:16;;;;;;;8.90;3.13;;;19.20;99.90;;;;;;5019229;28;20069;-73
2022/09/15 05:23:42;;;;;;;7.40;2.63;;;19.30;99.90;;;;;;5026091;28;20030;-73
2022/09/15 05:26:12;;;;;;;5.95;2.20;;;19.30;99.90;;;;;;5027455;28;20033;-74
2022/09/15 05:28:38;;;;;;;6.95;2.58;;;19.30;99.90;;;;;;5020531;28;20655;-73
2022/09/15 05:31:09;;;;;;;7.65;2.53;;;19.30;99.90;;;;;;5023625;28;20133;-73
2022/09/15 05:33:35;;;;;;;8.98;2.90;;;19.20;99.90;;;;;;5020761;28;20065;-73
2022/09/15 05:36:02;;;;;;;7.18;2.55;;;19.30;99.90;;;;;;5023906;28;20065;-73
2022/09/15 05:38:29;;;;;;;7.70;2.63;;;19.30;99.90;;;;;;5028920;28;20147;-73
2022/09/15 05:41:07;;;;;;;5.40;2.15;;;19.40;99.90;;;;;;5027610;28;20043;-74
2022/09/15 05:43:34;;;;;;;5.43;2.20;;;19.50;99.90;;;;;;5024495;28;20032;-74
2022/09/15 05:46:01;;;;;;;9.95;2.53;;;19.50;99.90;;;;;;5023834;28;20455;-73
2022/09/15 05:48:27;;;;;;;9.07;2.88;;;19.50;99.90;;;;;;5023815;28;20035;-73
2022/09/15 05:50:54;;;;;;;14.38;2.97;;;19.40;99.90;;;;;;5024600;28;20021;-73
2022/09/15 05:53:20;;;;;;;6.22;2.42;;;19.30;99.90;;;;;;5023390;28;20447;-73
2022/09/15 05:55:46;;;;;;;6.63;2.60;;;19.30;99.90;;;;;;5023630;28;20025;-73
2022/09/15 05:58:12;;;;;;;7.03;2.47;;;19.20;99.90;;;;;;5027146;28;20090;-73
2022/09/15 06:00:40;;;;;;;9.05;2.67;;;19.20;99.90;;;;;;5026092;28;21015;-73
2022/09/15 06:03:06;;;;;;;6.90;2.53;;;19.20;99.90;;;;;;5023849;28;20034;-73
2022/09/15 06:05:32;;;;;;;7.20;2.63;;;19.10;99.90;;;;;;5029763;28;20034;-73
2022/09/15 06:07:58;;;;;;;7.20;2.92;;;19.10;99.90;;;;;;5029846;28;20030;-73
2022/09/15 06:10:24;;;;;;;10.30;3.10;;;19.10;99.90;;;;;;5025674;28;20030;-73
2022/09/15 06:12:53;;;;;;;9.02;2.47;;;19.10;99.90;;;;;;5026118;28;20041;-73
2022/09/15 06:15:22;;;;;;;7.35;3.45;;;19.00;99.90;;;;;;5030471;28;20120;-73
2022/09/15 06:17:48;;;;;;;8.02;3.15;;;18.90;99.90;;;;;;5024012;28;20026;-73
2022/09/15 06:20:14;;;;;;;11.02;2.80;;;19.00;99.90;;;;;;5023254;28;20391;-73
2022/09/15 06:22:40;;;;;;;6.05;2.30;;;19.10;99.90;;;;;;5030474;28;20029;-73
2022/09/15 06:25:06;;;;;;;8.23;2.80;;;19.10;99.90;;;;;;5025147;28;20099;-73
2022/09/15 06:27:32;;;;;;;8.68;2.95;;;19.10;99.90;;;;;;5027341;28;20030;-73
2022/09/15 06:29:58;;;;;;;6.55;2.35;;;19.10;99.90;;;;;;5025678;28;20036;-73
2022/09/15 06:32:24;;;;;;;10.10;3.30;;;19.10;99.90;;;;;;5030545;28;20029;-73
2022/09/15 06:34:50;;;;;;;6.60;2.53;;;19.00;99.90;;;;;;5026853;28;20037;-73
2022/09/15 06:37:16;;;;;;;6.65;2.85;;;18.90;99.90;;;;;;5026764;28;20035;-73
2022/09/15 06:39:42;;;;;;;6.38;2.22;;;19.00;99.90;;;;;;5023634;28;20029;-73
2022/09/15 06:42:09;;;;;;;10.23;2.70;;;19.10;99.90;;;;;;5024957;28;20040;-72
2022/09/15 06:44:35;;;;;;;8.25;2.97;;;19.10;99.90;;;;;;5030775;28;20025;-73
2022/09/15 06:47:00;;;;;;;8.65;3.00;;;19.20;99.90;;;;;;5028479;28;20226;-74
2022/09/15 06:49:27;;;;;;;6.95;3.30;;;19.20;99.90;;;;;;5028175;28;20040;-73
2022/09/15 06:51:54;;;;;;;7.03;2.53;;;19.30;99.90;;;;;;5025089;28;20017;-74
2022/09/15 06:54:19;;;;;;;10.43;2.97;;;19.40;99.90;;;;;;5022799;28;20029;-73
2022/09/15 06:56:46;;;;;;;9.60;2.75;;;19.50;99.90;;;;;;5032892;28;20059;-73
2022/09/15 06:59:12;;;;;;;7.80;2.85;;;19.60;99.90;;;;;;5027829;28;20036;-73
2022/09/15 07:01:38;;;;;;;7.35;2.90;;;19.70;99.90;;;;;;5022409;28;20029;-73
2022/09/15 07:04:07;;;;;;;9.20;2.55;;;20.30;99.90;;;;;;5022005;28;20026;-74
2022/09/15 07:06:33;;;;;;;9.90;2.88;;;22.20;99.90;;;;;;5022802;28;20525;-74
2022/09/15 07:09:01;;;;;;;7.82;3.20;;;22.10;99.90;;;;;;5025341;28;20033;-74
2022/09/15 07:11:27;;;;;;;5.72;2.38;;;21.10;99.90;;;;;;5030479;28;20033;-74
2022/09/15 07:13:53;;;;;;;11.68;3.20;;;20.50;99.90;;;;;;5026521;28;20038;-74
2022/09/15 07:16:20;;;;;;;5.97;2.72;;;20.10;99.90;;;;;;5023296;28;20137;-73
2022/09/15 07:18:47;;;;;;;7.22;2.85;;;19.80;99.90;;;;;;5022322;28;20036;-73
2022/09/15 07:21:20;;;;;;;7.55;2.90;;;19.90;99.90;;;;;;5027863;28;20372;-74
2022/09/15 07:23:47;;;;;;;8.35;2.85;;;19.80;99.90;;;;;;5025440;28;20021;-73
2022/09/15 07:26:15;;;;;;;5.20;3.08;;;19.70;99.90;;;;;;5022369;28;20029;-74
2022/09/15 07:28:44;;;;;;;5.97;2.75;;;19.70;99.90;;;;;;5021314;28;20037;-74
2022/09/15 07:31:12;;;;;;;9.75;3.00;;;19.70;99.90;;;;;;5022568;28;20029;-74
2022/09/15 07:33:38;;;;;;;9.15;3.13;;;19.70;99.90;;;;;;5027839;28;20468;-73
2022/09/15 07:36:05;;;;;;;12.05;2.67;;;19.80;99.90;;;;;;5033068;28;20079;-73
2022/09/15 07:38:32;;;;;;;10.80;2.60;;;19.80;99.90;;;;;;5025621;28;20033;-73
2022/09/15 07:41:09;;;;;;;10.00;3.40;;;19.90;99.90;;;;;;5025412;28;20044;-73
2022/09/15 07:43:35;;;;;;;12.70;3.90;;;19.90;99.90;;;;;;5026069;28;20025;-73
2022/09/15 07:46:01;;;;;;;8.20;3.45;;;20.00;99.90;;;;;;5023982;28;20052;-73
2022/09/15 07:48:27;;;;;;;10.98;3.30;;;20.00;99.90;;;;;;5026377;28;20175;-73
2022/09/15 07:50:53;;;;;;;18.48;3.38;;;20.00;99.90;;;;;;5029159;28;20025;-73
2022/09/15 07:53:19;;;;;;;9.98;2.70;;;20.10;99.90;;;;;;5027428;28;20037;-73
2022/09/15 07:55:50;;;;;;;6.60;2.80;;;20.10;99.90;;;;;;5024756;28;20029;-74
2022/09/15 07:58:15;;;;;;;8.55;2.85;;;20.20;99.90;;;;;;5020997;28;20113;-73
2022/09/15 08:00:41;;;;;;;10.25;3.15;;;20.40;99.90;;;;;;5024124;28;20049;-73
2022/09/15 08:03:07;;;;;;;12.82;2.85;;;20.40;99.90;;;;;;5025960;28;20032;-73
2022/09/15 08:05:32;;;;;;;9.93;3.63;;;20.60;99.90;;;;;;5024223;28;20033;-73
2022/09/15 08:07:58;;;;;;;8.25;2.78;;;20.70;99.90;;;;;;5023972;28;20108;-73
2022/09/15 08:10:24;;;;;;;13.45;3.45;;;20.70;99.90;;;;;;5030597;28;20104;-74
2022/09/15 08:12:53;;;;;;;13.60;3.03;;;20.60;99.90;;;;;;5023976;28;20500;-73
2022/09/15 08:15:19;;;;;;;9.13;3.00;;;20.60;99.90;;;;;;5026205;28;20036;-73
2022/09/15 08:17:45;;;;;;;6.43;3.22;;;20.70;99.90;;;;;;5021487;28;20033;-73
2022/09/15 08:20:12;;;;;;;6.90;2.57;;;20.70;99.90;;;;;;5022805;28;20323;-73
2022/09/15 08:22:38;;;;;;;9.98;3.10;;;20.80;99.90;;;;;;5027326;28;20490;-74
2022/09/15 08:25:05;;;;;;;10.90;2.92;;;20.90;99.90;;;;;;5027294;28;20035;-73
2022/09/15 08:27:30;;;;;;;8.07;2.70;;;21.00;99.90;;;;;;5030417;28;20098;-74
2022/09/15 08:29:56;;;;;;;6.38;2.78;;;21.10;99.90;;;;;;5024739;28;20476;-74
2022/09/15 08:32:22;;;;;;;11.13;3.33;;;21.10;99.90;;;;;;5020959;28;20037;-74
2022/09/15 08:34:48;;;;;;;13.07;3.17;;;21.20;99.90;;;;;;5020692;28;20026;-73
2022/09/15 08:37:14;;;;;;;8.88;3.60;;;21.30;99.90;;;;;;5020315;28;20028;-74
2022/09/15 08:39:40;;;;;;;11.15;3.03;;;21.30;99.90;;;;;;5020369;28;20049;-73
2022/09/15 08:42:08;;;;;;;14.38;3.72;;;21.30;99.90;;;;;;5025380;28;20120;-73
2022/09/15 08:44:59;;;;;;;21.75;3.35;;;21.40;99.90;;;;;;5027023;28;20621;-74
2022/09/15 08:47:30;;;;;;;8.30;3.03;;;21.40;99.90;;;;;;5020657;28;20029;-74
2022/09/15 08:50:26;;;;;;;9.65;3.00;;;21.50;99.90;;;;;;5021502;28;20124;-73
2022/09/15 08:53:12;;;;;;;13.13;3.60;;;21.80;99.90;;;;;;5025885;28;20128;-73
2022/09/15 08:55:47;;;;;;;11.02;3.33;;;21.70;99.90;;;;;;5022503;28;20033;-73
2022/09/15 08:58:25;;;;;;;9.10;2.72;;;21.80;99.90;;;;;;5021607;28;20500;-74
2022/09/15 09:01:13;;;;;;;11.75;2.70;;;21.90;99.90;;;;;;5023426;28;20034;-73
2022/09/15 09:04:03;;;;;;;7.82;3.05;;;22.10;99.90;;;;;;5027094;28;20029;-73
2022/09/15 09:07:00;;;;;;;7.57;2.80;;;23.90;99.90;;;;;;5021885;28;20029;-73
2022/09/15 09:09:42;;;;;;;9.90;3.08;;;27.60;98.40;;;;;;5019690;28;20108;-74
2022/09/15 09:12:28;;;;;;;7.10;2.60;;;28.00;97.10;;;;;;5020021;28;20056;-74
2022/09/15 09:15:04;;;;;;;7.38;3.22;;;28.40;97.20;;;;;;5020480;28;20450;-73
2022/09/15 09:18:17;;;;;;;6.20;2.85;;;29.20;96.40;;;;;;5022993;28;20029;-74
2022/09/15 09:21:05;;;;;;;7.43;2.53;;;29.40;94.90;;;;;;5020335;28;20061;-73
2022/09/15 09:23:32;;;;;;;8.45;2.72;;;28.80;96.20;;;;;;5021839;28;20091;-73
2022/09/15 09:26:00;;;;;;;14.13;3.50;;;29.90;95.80;;;;;;5019112;28;20032;-73
2022/09/15 09:28:31;;;;;;;9.13;2.67;;;29.00;95.10;;;;;;5022018;28;20517;-73
2022/09/15 09:31:06;;;;;;;8.80;2.97;;;29.80;94.40;;;;;;5026245;28;20130;-73
2022/09/15 09:33:37;;;;;;;9.13;2.90;;;31.00;94.30;;;;;;5029312;28;20021;-73
2022/09/15 09:36:04;;;;;;;6.97;2.60;;;31.00;94.40;;;;;;5025850;28;20040;-73
2022/09/15 09:38:34;;;;;;;7.32;2.25;;;31.50;94.00;;;;;;5028384;28;20034;-74
2022/09/15 09:41:03;;;;;;;8.13;2.70;;;30.90;93.90;;;;;;5029962;28;20460;-74
2022/09/15 09:43:31;;;;;;;8.48;3.15;;;30.90;93.70;;;;;;5028729;28;20418;-73
2022/09/15 09:45:56;;;;;;;12.75;2.60;;;30.00;93.50;;;;;;5025753;28;20037;-74
2022/09/15 09:48:25;;;;;;;8.57;3.03;;;29.80;93.60;;;;;;5025709;28;20078;-74
2022/09/15 09:50:51;;;;;;;7.20;2.65;;;28.10;94.20;;;;;;5022542;28;20033;-73
2022/09/15 09:53:33;;;;;;;8.90;2.67;;;26.30;95.70;;;;;;5019875;28;20030;-74
2022/09/15 09:56:10;;;;;;;11.68;2.85;;;25.20;98.00;;;;;;5019841;28;20087;-73
2022/09/15 09:58:36;;;;;;;10.70;2.47;;;24.80;99.30;;;;;;5019978;28;20535;-73
2022/09/15 10:01:13;;;;;;;5.88;2.63;;;24.50;98.40;;;;;;5023143;28;20041;-73
2022/09/15 10:03:40;;;;;;;8.25;2.50;;;24.50;98.60;;;;;;5032810;28;20026;-74
2022/09/15 10:06:13;;;;;;;7.93;2.35;;;24.80;98.20;;;;;;5025399;28;20688;-74
2022/09/15 10:08:56;;;;;;;9.80;2.92;;;24.80;98.30;;;;;;5021009;28;20029;-74
2022/09/15 10:11:41;;;;;;;8.82;2.08;;;24.90;98.50;;;;;;5020799;28;20029;-74
2022/09/15 10:14:26;;;;;;;12.52;2.65;;;24.90;97.70;;;;;;5034099;28;20120;-73
2022/09/15 10:17:01;;;;;;;7.57;1.95;;;24.90;97.70;;;;;;5024955;28;20030;-73
2022/09/15 10:19:30;;;;;;;15.13;3.67;;;24.90;97.50;;;;;;5023297;28;20065;-73
2022/09/15 10:21:57;;;;;;;24.35;3.50;;;24.90;97.80;;;;;;5023805;28;20042;-73
2022/09/15 10:24:34;;;;;;;6.22;2.13;;;25.20;98.80;;;;;;5025400;28;20112;-73
2022/09/15 10:27:28;;;;;;;6.55;2.03;;;25.20;96.80;;;;;;5030180;28;20419;-73
2022/09/15 10:29:54;;;;;;;7.40;2.47;;;25.30;97.30;;;;;;5027662;28;20590;-73
2022/09/15 10:32:28;;;;;;;5.38;2.03;;;25.50;96.90;;;;;;5031847;28;20039;-74
2022/09/15 10:35:18;;;;;;;11.70;2.40;;;25.70;97.50;;;;;;5026325;28;20037;-73
2022/09/15 10:38:05;;;;;;;7.95;2.88;;;25.80;96.90;;;;;;5030237;28;20025;-73
2022/09/15 10:40:51;;;;;;;11.82;2.65;;;26.00;97.70;;;;;;5029123;28;20207;-74
2022/09/15 10:43:34;;;;;;;5.28;1.85;;;26.30;97.40;;;;;;5023344;28;20033;-73
2022/09/15 10:46:12;;;;;;;7.22;2.20;;;26.20;96.10;;;;;;5022720;28;20030;-73
2022/09/15 10:48:49;;;;;;;5.65;2.25;;;26.70;96.00;;;;;;5022353;28;20037;-74
2022/09/15 10:51:33;;;;;;;6.80;2.10;;;26.60;95.70;;;;;;5023062;28;20073;-73
2022/09/15 10:54:11;;;;;;;4.63;2.30;;;26.80;96.60;;;;;;5022410;28;20042;-73
2022/09/15 10:57:07;;;;;;;6.90;1.90;;;26.60;96.70;;;;;;5027930;28;20365;-74
2022/09/15 10:59:44;;;;;;;7.78;2.15;;;26.80;95.70;;;;;;5028059;28;20483;-73
2022/09/15 11:02:13;;;;;;;5.00;1.42;;;27.00;95.20;;;;;;5024927;28;20063;-73
2022/09/15 11:04:44;;;;;;;6.75;2.00;;;27.50;94.10;;;;;;5021979;28;20108;-74
2022/09/15 11:07:45;;;;;;;2.88;1.23;;;27.80;92.70;;;;;;5028941;28;20112;-73
2022/09/15 11:10:35;;;;;;;8.35;2.22;;;27.70;92.50;;;;;;5022829;28;20060;-73
2022/09/15 11:13:21;;;;;;;6.22;1.70;;;27.90;92.70;;;;;;5021643;28;20072;-73
2022/09/15 11:16:18;;;;;;;5.22;1.33;;;27.90;92.30;;;;;;5025906;28;20049;-74
2022/09/15 11:19:11;;;;;;;9.02;1.80;;;28.10;92.50;;;;;;5023392;28;20041;-73
2022/09/15 11:21:44;;;;;;;6.70;1.45;;;28.20;92.30;;;;;;5022552;28;20029;-73
2022/09/15 11:24:13;;;;;;;7.63;1.75;;;28.30;92.10;;;;;;5028157;28;20044;-74
2022/09/15 11:26:53;;;;;;;4.50;1.48;;;28.20;92.00;;;;;;5022927;28;20080;-74
2022/09/15 11:29:31;;;;;;;8.10;2.10;;;28.30;91.70;;;;;;5027134;28;20045;-75
2022/09/15 11:32:08;;;;;;;5.68;1.95;;;28.40;92.40;;;;;;5028335;28;20138;-76
2022/09/15 11:35:06;;;;;;;4.40;1.38;;;28.30;91.90;;;;;;5023643;28;20041;-76
2022/09/15 11:37:46;;;;;;;4.57;1.70;;;28.50;91.70;;;;;;5029820;28;20025;-75
2022/09/15 11:40:21;;;;;;;4.30;1.52;;;28.40;91.90;;;;;;5022998;28;20624;-75
2022/09/15 11:43:15;;;;;;;4.32;1.70;;;28.50;92.10;;;;;;5020642;28;20553;-76
2022/09/15 11:45:45;;;;;;;5.50;1.95;;;28.50;91.60;;;;;;5022851;28;20469;-75
2022/09/15 11:48:42;;;;;;;9.68;2.15;;;28.70;91.90;;;;;;5025613;28;20032;-75
2022/09/15 11:51:10;;;;;;;5.88;1.40;;;28.70;91.70;;;;;;5028370;28;20067;-75
2022/09/15 11:53:49;;;;;;;5.55;1.52;;;28.90;91.30;;;;;;5022372;28;20026;-76
2022/09/15 11:56:19;;;;;;;6.35;1.95;;;28.90;91.70;;;;;;5022854;28;20017;-76
2022/09/15 11:59:05;;;;;;;6.85;1.90;;;29.00;91.90;;;;;;5022538;28;20033;-75
2022/09/15 12:01:55;;;;;;;3.53;1.45;;;29.10;91.40;;;;;;5021835;28;20588;-76
2022/09/15 12:04:28;;;;;;;6.88;1.77;;;28.70;91.00;;;;;;5021878;28;20041;-76
2022/09/15 12:07:13;;;;;;;10.98;2.00;;;28.80;91.00;;;;;;5020415;28;20029;-75
2022/09/15 12:09:39;;;;;;;5.65;1.70;;;28.60;91.80;;;;;;5025648;28;20029;-75
2022/09/15 12:12:10;;;;;;;5.70;1.42;;;28.70;91.30;;;;;;5023679;28;20060;-76
2022/09/15 12:14:40;;;;;;;4.15;1.60;;;28.80;90.70;;;;;;5020767;28;20064;-76
2022/09/15 12:17:12;;;;;;;6.18;2.20;;;28.80;91.10;;;;;;5024701;28;20095;-76
2022/09/15 12:19:54;;;;;;;7.50;1.88;;;28.60;90.70;;;;;;5027228;28;20490;-76
2022/09/15 12:22:49;;;;;;;4.80;1.60;;;28.20;91.10;;;;;;5027426;28;20029;-78
2022/09/15 12:25:27;;;;;;;9.57;1.90;;;28.30;91.10;;;;;;5031850;28;20713;-76
2022/09/15 12:28:21;;;;;;;6.78;1.52;;;28.00;91.50;;;;;;5030573;28;20596;-76
2022/09/15 12:30:48;;;;;;;3.72;1.35;;;27.80;91.10;;;;;;5028141;28;20942;-76
2022/09/15 12:33:41;;;;;;;5.22;1.98;;;28.10;91.20;;;;;;5028282;28;20033;-76
2022/09/15 12:36:37;;;;;;;6.90;2.08;;;28.10;91.10;;;;;;5022892;28;20479;-77
2022/09/15 12:39:35;;;;;;;6.85;1.48;;;28.10;91.10;;;;;;5020344;28;20030;-77
2022/09/15 12:42:24;;;;;;;6.40;1.17;;;27.90;91.30;;;;;;5020545;28;20052;-76
2022/09/15 12:45:28;;;;;;;6.10;1.83;;;27.80;91.20;;;;;;5021509;28;20041;-76
2022/09/15 12:47:55;;;;;;;9.55;1.98;;;27.90;91.00;;;;;;5023254;28;20029;-76
2022/09/15 12:50:49;;;;;;;7.38;1.85;;;27.90;91.00;;;;;;5019763;28;20129;-76
2022/09/15 12:53:23;;;;;;;5.00;1.65;;;27.70;91.30;;;;;;5021058;28;20121;-77
2022/09/15 12:55:54;;;;;;;3.80;1.35;;;27.60;91.30;;;;;;5018970;28;20033;-76
2022/09/15 12:58:43;;;;;;;4.35;1.65;;;27.60;91.80;;;;;;5019995;28;20094;-76
2022/09/15 13:01:21;;;;;;;3.95;1.10;;;27.50;91.40;;;;;;5020286;28;20037;-77
2022/09/15 13:03:49;;;;;;;8.13;1.85;;;27.40;91.30;;;;;;5025539;28;20100;-76
2022/09/15 13:06:18;;;;;;;5.78;1.50;;;27.30;91.40;;;;;;5020647;28;20045;-76
2022/09/15 13:08:48;;;;;;;3.72;1.40;;;27.20;92.00;;;;;;5020250;28;20096;-76
2022/09/15 13:11:19;;;;;;;6.82;1.70;;;27.30;91.60;;;;;;5022200;28;20029;-76
2022/09/15 13:14:20;;;;;;;6.45;1.67;;;27.30;92.10;;;;;;5022489;28;20119;-76